Terminal Aerodrome Forecast
Issued by NWS Burlington, VT

Home | Current Version | Previous Version | Text Only | Print | Product List | Glossary On
Versions: 1 2 3 4 5 6 7 8 9 10 11 12 13 14 15 16 17 18 19 20 21 22 23
000
FTUS41 KBTV 261736
TAFBTV
TAF
KBTV 261736Z 2618/2718 32008G16KT P6SM VCSH SCT025 BKN050
     FM262300 20005KT P6SM BKN045
     FM271600 18009G18KT P6SM VCSH BKN060=

USA.gov is the U.S. government's official web portal to all federal, state and local government web resources and services.